createdAt,value
2023-03-03T00:00:30.874Z,98266.94
2023-03-03T00:03:08.891Z,98266.06
2023-03-03T00:05:40.147Z,98264.38
2023-03-03T00:08:10.560Z,98266.19
2023-03-03T00:10:42.347Z,98270.69
2023-03-03T00:13:22.049Z,98269.94
2023-03-03T00:15:52.540Z,98264.75
2023-03-03T00:18:31.710Z,98262.91
2023-03-03T00:21:03.661Z,98266.81
2023-03-03T00:23:39.530Z,98269.19
2023-03-03T00:26:24.552Z,98269.19
2023-03-03T00:28:57.866Z,98267.88
2023-03-03T00:31:36.189Z,98277.03
2023-03-03T00:34:28.161Z,98269.41
2023-03-03T00:37:00.715Z,98265.28
2023-03-03T00:39:36.741Z,98266.53
2023-03-03T00:42:16.467Z,98265.97
2023-03-03T00:44:50.902Z,98265.97
2023-03-03T00:47:32.792Z,98270.06
2023-03-03T00:50:36.170Z,98262.81
2023-03-03T00:53:17.232Z,98261.78
2023-03-03T00:55:49.615Z,98259.19
2023-03-03T00:58:21.982Z,98258.25
2023-03-03T01:00:58.987Z,98262.69
2023-03-03T01:03:39.106Z,98262.56
2023-03-03T01:06:10.118Z,98262.94
2023-03-03T01:08:40.205Z,98265.75
2023-03-03T01:11:16.591Z,98266.56
2023-03-03T01:13:50.882Z,98259.03
2023-03-03T01:16:24.386Z,98261.69
2023-03-03T01:18:54.351Z,98251.44
2023-03-03T01:21:25.366Z,98258.47
2023-03-03T01:23:55.379Z,98252.69
2023-03-03T01:26:25.912Z,98253.38
2023-03-03T01:28:55.917Z,98258.72
2023-03-03T01:31:28.638Z,98255.06
2023-03-03T01:33:58.657Z,98258.94
2023-03-03T01:36:29.698Z,98253.56
2023-03-03T01:39:00.023Z,98260.66
2023-03-03T01:41:33.515Z,98258.59
2023-03-03T01:44:04.354Z,98261.91
2023-03-03T01:46:58.081Z,98259.25
2023-03-03T01:49:36.252Z,98260.28
2023-03-03T01:52:16.124Z,98255.75
2023-03-03T01:54:54.286Z,98258.78
2023-03-03T01:57:32.610Z,98255.16
2023-03-03T02:00:06.108Z,98255.22
2023-03-03T02:02:47.757Z,98255.66
2023-03-03T02:05:19.714Z,98254.75
2023-03-03T02:07:50.494Z,98249.50
2023-03-03T02:10:24.083Z,98238.84
2023-03-03T02:12:57.458Z,98235.28
2023-03-03T02:15:32.271Z,98239.41
2023-03-03T02:18:10.001Z,98232.03
2023-03-03T02:21:00.445Z,98235.25
2023-03-03T02:23:39.763Z,98221.78
2023-03-03T02:26:18.825Z,98227.84
2023-03-03T02:28:48.905Z,98219.00
2023-03-03T02:31:23.408Z,98225.94
2023-03-03T02:33:56.156Z,98224.59
2023-03-03T02:36:30.057Z,98217.19
2023-03-03T02:39:12.902Z,98227.91
2023-03-03T02:41:54.028Z,98227.22
2023-03-03T02:44:28.870Z,98230.31
2023-03-03T02:47:01.105Z,98226.50
2023-03-03T02:49:36.167Z,98232.31
2023-03-03T02:52:11.410Z,98230.97
2023-03-03T02:54:44.299Z,98230.94
2023-03-03T02:57:17.581Z,98231.47
2023-03-03T02:59:47.554Z,98232.06
2023-03-03T03:02:21.056Z,98240.41
2023-03-03T03:04:51.192Z,98235.19
2023-03-03T03:07:25.699Z,98235.72
2023-03-03T03:09:56.010Z,98238.16
2023-03-03T03:12:28.594Z,98237.38
2023-03-03T03:15:00.628Z,98246.00
2023-03-03T03:17:31.443Z,98242.72
2023-03-03T03:20:02.998Z,98238.66
2023-03-03T03:22:33.874Z,98238.84
2023-03-03T03:25:04.084Z,98235.59
2023-03-03T03:27:37.998Z,98229.09
2023-03-03T03:30:10.378Z,98235.84
2023-03-03T03:32:40.638Z,98230.78
2023-03-03T03:35:11.875Z,98239.03
2023-03-03T03:37:42.004Z,98249.38
2023-03-03T03:40:14.471Z,98242.22
2023-03-03T03:42:47.185Z,98245.03
2023-03-03T03:45:17.624Z,98244.19
2023-03-03T03:47:49.913Z,98239.69
2023-03-03T03:50:20.312Z,98235.66
2023-03-03T03:52:51.392Z,98242.97
2023-03-03T03:55:22.612Z,98245.88
2023-03-03T03:57:56.065Z,98243.53
2023-03-03T04:00:26.693Z,98250.97
2023-03-03T04:03:01.355Z,98249.31
2023-03-03T04:05:31.785Z,98249.75
2023-03-03T04:08:01.932Z,98248.84
2023-03-03T04:10:31.958Z,98249.66
2023-03-03T04:13:04.960Z,98248.06
2023-03-03T04:15:36.365Z,98248.72
2023-03-03T04:18:07.555Z,98250.00
2023-03-03T04:20:37.683Z,98254.50
2023-03-03T04:23:07.726Z,98262.72
2023-03-03T04:25:37.699Z,98259.53
2023-03-03T04:28:18.916Z,98262.16
2023-03-03T04:30:50.487Z,98267.72
2023-03-03T04:33:21.985Z,98268.09
2023-03-03T04:35:53.062Z,98264.72
2023-03-03T04:38:23.657Z,98256.00
2023-03-03T04:40:54.838Z,98262.63
2023-03-03T04:43:28.898Z,98261.53
2023-03-03T04:45:59.739Z,98263.59
2023-03-03T04:48:29.750Z,98257.63
2023-03-03T04:50:59.898Z,98260.34
2023-03-03T04:53:30.871Z,98265.75
2023-03-03T04:56:01.211Z,98269.19
2023-03-03T04:58:34.047Z,98266.44
2023-03-03T05:01:04.944Z,98272.13
2023-03-03T05:03:36.093Z,98271.78
2023-03-03T05:06:06.173Z,98274.09
2023-03-03T05:08:36.419Z,98282.84
2023-03-03T05:11:07.477Z,98281.69
2023-03-03T05:13:40.061Z,98285.22
2023-03-03T05:16:10.847Z,98283.13
2023-03-03T05:18:41.624Z,98284.78
2023-03-03T05:21:11.714Z,98287.16
2023-03-03T05:23:41.706Z,98280.06
2023-03-03T05:26:11.833Z,98278.66
2023-03-03T05:28:44.330Z,98282.63
2023-03-03T05:31:14.654Z,98284.19
2023-03-03T05:33:45.486Z,98282.47
2023-03-03T05:36:15.595Z,98283.06
2023-03-03T05:38:45.603Z,98287.31
2023-03-03T05:41:15.628Z,98300.03
2023-03-03T05:43:48.150Z,98292.59
2023-03-03T05:46:18.249Z,98293.66
2023-03-03T05:48:48.288Z,98305.50
2023-03-03T05:51:18.273Z,98305.81
2023-03-03T05:53:48.453Z,98305.72
2023-03-03T05:56:18.447Z,98303.31
2023-03-03T05:58:51.015Z,98307.47
2023-03-03T06:01:22.219Z,98309.84
2023-03-03T06:03:52.194Z,98315.44
2023-03-03T06:06:22.190Z,98306.72
2023-03-03T06:08:55.551Z,98314.50
2023-03-03T06:11:27.187Z,98309.63
2023-03-03T06:14:00.110Z,98317.97
2023-03-03T06:16:30.254Z,98316.81
2023-03-03T06:19:00.277Z,98325.81
2023-03-03T06:21:30.267Z,98322.09
2023-03-03T06:24:00.299Z,98333.78
2023-03-03T06:26:30.352Z,98337.50
2023-03-03T06:29:03.163Z,98337.66
2023-03-03T06:31:33.285Z,98329.84
2023-03-03T06:34:03.309Z,98337.50
2023-03-03T06:36:33.280Z,98331.56
2023-03-03T06:39:04.132Z,98340.19
2023-03-03T06:41:34.242Z,98344.97
2023-03-03T06:44:07.236Z,98341.13
2023-03-03T06:46:37.231Z,98347.63
2023-03-03T06:49:07.595Z,98351.19
2023-03-03T06:51:41.244Z,98354.66
2023-03-03T06:54:16.280Z,98353.47
2023-03-03T06:56:48.358Z,98348.94
2023-03-03T06:59:24.253Z,98344.28
2023-03-03T07:01:54.879Z,98353.13
2023-03-03T07:04:33.416Z,98360.25
2023-03-03T07:07:17.809Z,98363.72
2023-03-03T07:09:50.144Z,98366.91
2023-03-03T07:12:23.017Z,98369.06
2023-03-03T07:15:06.198Z,98367.47
2023-03-03T07:17:37.369Z,98368.44
2023-03-03T07:20:21.130Z,98378.56
2023-03-03T07:22:51.519Z,98379.66
2023-03-03T07:25:36.503Z,98388.06
2023-03-03T07:28:24.892Z,98375.38
2023-03-03T07:30:59.866Z,98382.81
2023-03-03T07:33:34.457Z,98380.81
2023-03-03T07:36:06.867Z,98384.56
2023-03-03T07:38:45.448Z,98381.13
2023-03-03T07:41:23.536Z,98387.94
2023-03-03T07:43:57.217Z,98384.38
2023-03-03T07:46:37.409Z,98385.13
2023-03-03T07:49:25.648Z,98387.28
2023-03-03T07:51:59.365Z,98389.75
2023-03-03T07:54:40.365Z,98391.81
2023-03-03T07:57:24.191Z,98393.88
2023-03-03T07:59:57.515Z,98388.69
2023-03-03T08:02:43.066Z,98393.75
2023-03-03T08:05:34.003Z,98400.56
2023-03-03T08:08:30.628Z,98401.03
2023-03-03T08:11:02.829Z,98396.44
2023-03-03T08:13:41.687Z,98391.66
2023-03-03T08:16:40.114Z,98399.00
2023-03-03T08:19:19.852Z,98393.78
2023-03-03T08:21:50.090Z,98390.63
2023-03-03T08:24:20.108Z,98396.91
2023-03-03T08:26:50.249Z,98397.31
2023-03-03T08:29:20.232Z,98400.81
2023-03-03T08:31:50.204Z,98387.91
2023-03-03T08:34:22.750Z,98388.72
2023-03-03T08:36:52.745Z,98398.88
2023-03-03T08:39:22.724Z,98401.97
2023-03-03T08:41:53.036Z,98400.53
2023-03-03T08:44:23.114Z,98404.84
2023-03-03T08:46:53.191Z,98399.84
2023-03-03T08:49:25.822Z,98395.13
2023-03-03T08:51:57.114Z,98389.63
2023-03-03T08:54:27.128Z,98396.59
2023-03-03T08:56:57.138Z,98403.53
2023-03-03T08:59:27.396Z,98402.09
2023-03-03T09:01:57.693Z,98413.63
2023-03-03T09:04:30.292Z,98414.44
2023-03-03T09:07:00.460Z,98416.41
2023-03-03T09:09:30.631Z,98418.03
2023-03-03T09:12:10.308Z,98418.16
2023-03-03T09:14:40.241Z,98424.78
2023-03-03T09:17:27.614Z,98429.66
2023-03-03T09:20:13.288Z,98432.03
2023-03-03T09:22:43.326Z,98431.72
2023-03-03T09:25:30.066Z,98424.63
2023-03-03T09:28:00.462Z,98427.97
2023-03-03T09:30:44.309Z,98432.69
2023-03-03T09:33:28.036Z,98430.59
2023-03-03T09:36:23.316Z,98432.34
2023-03-03T09:38:54.141Z,98429.31
2023-03-03T09:42:01.559Z,98429.78
2023-03-03T09:45:22.432Z,98430.56
2023-03-03T09:48:31.042Z,98434.03
2023-03-03T09:51:23.365Z,98426.59
2023-03-03T09:54:26.394Z,98426.44
2023-03-03T09:57:07.952Z,98427.50
2023-03-03T10:00:00.294Z,98430.56
2023-03-03T10:02:56.834Z,98437.06
2023-03-03T10:05:42.612Z,98430.94
2023-03-03T10:08:42.512Z,98427.19
2023-03-03T10:11:24.872Z,98434.38
2023-03-03T10:14:28.608Z,98428.19
2023-03-03T10:17:21.613Z,98433.94
2023-03-03T10:20:15.036Z,98427.59
2023-03-03T10:22:56.293Z,98430.69
2023-03-03T10:25:42.560Z,98430.00
2023-03-03T10:28:44.169Z,98430.75
2023-03-03T10:31:29.548Z,98429.34
2023-03-03T10:34:13.024Z,98430.25
2023-03-03T10:36:58.344Z,98426.81
2023-03-03T10:40:05.364Z,98424.84
2023-03-03T10:43:26.123Z,98428.97
2023-03-03T10:46:35.792Z,98425.63
2023-03-03T10:49:45.575Z,98421.59
2023-03-03T10:52:34.397Z,98423.06
2023-03-03T10:55:40.926Z,98434.59
2023-03-03T10:58:41.525Z,98418.47
2023-03-03T11:01:29.622Z,98420.75
2023-03-03T11:04:28.120Z,98427.06
2023-03-03T11:07:09.016Z,98414.56
2023-03-03T11:10:02.976Z,98422.34
2023-03-03T11:12:48.952Z,98405.88
2023-03-03T11:15:44.220Z,98419.47
2023-03-03T11:18:39.300Z,98416.75
2023-03-03T11:21:22.426Z,98423.44
2023-03-03T11:24:27.736Z,98427.56
2023-03-03T11:27:32.522Z,98428.91
2023-03-03T11:30:37.525Z,98426.19
2023-03-03T11:33:13.119Z,98424.84
2023-03-03T11:35:52.347Z,98435.38
2023-03-03T11:38:48.276Z,98425.00
2023-03-03T11:41:34.621Z,98427.97
2023-03-03T11:44:20.191Z,98424.72
2023-03-03T11:47:00.993Z,98426.66
2023-03-03T11:49:39.832Z,98426.69
2023-03-03T11:52:27.705Z,98419.22
2023-03-03T11:55:07.243Z,98407.19
2023-03-03T11:57:46.359Z,98413.78
2023-03-03T12:00:26.894Z,98412.47
2023-03-03T12:03:22.903Z,98395.25
2023-03-03T12:06:03.600Z,98402.56
2023-03-03T12:09:06.297Z,98393.13
2023-03-03T12:11:51.627Z,98393.88
2023-03-03T12:14:41.309Z,98385.69
2023-03-03T12:17:31.490Z,98388.34
2023-03-03T12:20:17.163Z,98378.50
2023-03-03T12:23:07.319Z,98386.69
2023-03-03T12:25:45.323Z,98386.19
2023-03-03T12:28:23.572Z,98388.75
2023-03-03T12:31:32.832Z,98380.38
2023-03-03T12:34:13.061Z,98378.50
2023-03-03T12:37:15.574Z,98384.06
2023-03-03T12:40:00.411Z,98380.97
2023-03-03T12:42:45.769Z,98376.16
2023-03-03T12:45:38.569Z,98375.97
2023-03-03T12:48:18.455Z,98370.06
2023-03-03T12:51:06.951Z,98366.63
2023-03-03T12:53:54.723Z,98359.84
2023-03-03T12:56:39.090Z,98370.22
2023-03-03T12:59:19.423Z,98372.09
2023-03-03T13:02:07.669Z,98358.88
2023-03-03T13:04:45.794Z,98365.19
2023-03-03T13:07:26.262Z,98366.38
2023-03-03T13:10:15.887Z,98370.00
2023-03-03T13:12:51.835Z,98362.13
2023-03-03T13:15:32.784Z,98361.25
2023-03-03T13:18:28.229Z,98359.97
2023-03-03T13:21:11.120Z,98366.13
2023-03-03T13:23:53.877Z,98365.56
2023-03-03T13:26:36.592Z,98362.72
2023-03-03T13:29:18.111Z,98359.03
2023-03-03T13:31:54.870Z,98359.56
2023-03-03T13:34:39.966Z,98355.47
2023-03-03T13:37:22.504Z,98353.34
2023-03-03T13:40:03.698Z,98347.81
2023-03-03T13:42:44.439Z,98349.91
2023-03-03T13:45:26.899Z,98346.31
2023-03-03T13:48:10.985Z,98346.66
2023-03-03T13:50:49.908Z,98348.50
2023-03-03T13:53:48.096Z,98352.91
2023-03-03T13:56:45.922Z,98347.63
2023-03-03T13:59:31.919Z,98343.69
2023-03-03T14:02:18.268Z,98345.97
2023-03-03T14:04:56.916Z,98344.75
2023-03-03T14:07:35.486Z,98338.53
2023-03-03T14:10:19.390Z,98334.56
2023-03-03T14:13:03.403Z,98339.59
2023-03-03T14:15:41.379Z,98333.34
2023-03-03T14:18:32.633Z,98328.69
2023-03-03T14:21:10.905Z,98333.41
2023-03-03T14:23:57.502Z,98329.25
2023-03-03T14:26:28.580Z,98322.47
2023-03-03T14:29:21.856Z,98322.47
2023-03-03T14:31:54.535Z,98319.13
2023-03-03T14:34:41.245Z,98318.44
2023-03-03T14:37:29.385Z,98322.72
2023-03-03T14:40:21.728Z,98328.34
2023-03-03T14:43:02.014Z,98320.84
2023-03-03T14:45:40.264Z,98317.94
2023-03-03T14:48:21.004Z,98321.09
2023-03-03T14:50:54.942Z,98317.44
2023-03-03T14:53:36.968Z,98320.34
2023-03-03T14:56:27.555Z,98315.84
2023-03-03T14:59:19.391Z,98318.44
2023-03-03T15:01:50.567Z,98319.28
2023-03-03T15:04:31.643Z,98314.56
2023-03-03T15:07:01.791Z,98313.47
2023-03-03T15:09:43.303Z,98320.59
2023-03-03T15:12:26.442Z,98315.03
2023-03-03T15:15:13.450Z,98314.53
2023-03-03T15:17:47.541Z,98308.03
2023-03-03T15:20:41.812Z,98307.81
2023-03-03T15:23:50.653Z,98309.34
2023-03-03T15:26:30.169Z,98305.91
2023-03-03T15:29:14.449Z,98312.09
2023-03-03T15:31:56.683Z,98308.81
2023-03-03T15:34:43.461Z,98309.59
2023-03-03T15:37:38.998Z,98308.47
2023-03-03T15:40:25.867Z,98310.22
2023-03-03T15:43:15.319Z,98314.91
2023-03-03T15:45:57.497Z,98302.41
2023-03-03T15:48:49.219Z,98303.19
2023-03-03T15:51:46.053Z,98315.00
2023-03-03T15:54:44.787Z,98306.63
2023-03-03T15:57:30.894Z,98307.41
2023-03-03T16:00:25.744Z,98309.31
2023-03-03T16:03:02.351Z,98312.66
2023-03-03T16:05:36.735Z,98310.09
2023-03-03T16:08:17.615Z,98308.50
2023-03-03T16:11:09.679Z,98310.72
2023-03-03T16:14:10.189Z,98313.91
2023-03-03T16:16:49.768Z,98324.50
2023-03-03T16:19:45.283Z,98321.66
2023-03-03T16:22:48.794Z,98318.69
2023-03-03T16:25:37.011Z,98317.31
2023-03-03T16:28:19.757Z,98322.41
2023-03-03T16:30:59.332Z,98328.94
2023-03-03T16:33:43.971Z,98329.91
2023-03-03T16:36:31.216Z,98324.19
2023-03-03T16:39:12.363Z,98337.38
2023-03-03T16:41:53.163Z,98341.00
2023-03-03T16:44:42.414Z,98347.66
2023-03-03T16:47:34.221Z,98344.31
2023-03-03T16:50:26.443Z,98346.69
2023-03-03T16:53:06.816Z,98353.97
2023-03-03T16:55:51.438Z,98369.94
2023-03-03T16:58:41.695Z,98366.63
2023-03-03T17:01:27.948Z,98365.31
2023-03-03T17:04:03.808Z,98367.53
2023-03-03T17:06:48.327Z,98368.44
2023-03-03T17:10:00.615Z,98372.53
2023-03-03T17:12:55.102Z,98373.91
2023-03-03T17:15:45.770Z,98369.72
2023-03-03T17:18:38.694Z,98375.19
2023-03-03T17:21:21.180Z,98380.63
2023-03-03T17:24:05.827Z,98385.50
2023-03-03T17:26:56.305Z,98391.75
2023-03-03T17:30:13.957Z,98386.34
2023-03-03T17:33:13.013Z,98391.84
2023-03-03T17:36:11.910Z,98392.31
2023-03-03T17:38:59.042Z,98401.13
2023-03-03T17:41:41.473Z,98395.63
2023-03-03T17:44:19.895Z,98400.25
2023-03-03T17:46:55.681Z,98399.09
2023-03-03T17:50:05.929Z,98406.75
2023-03-03T17:53:06.487Z,98413.75
2023-03-03T17:56:05.558Z,98422.91
2023-03-03T17:59:26.668Z,98421.38
2023-03-03T18:02:39.875Z,98427.28
2023-03-03T18:06:01.357Z,98435.13
2023-03-03T18:09:14.143Z,98429.78
2023-03-03T18:12:04.538Z,98431.56
2023-03-03T18:15:07.434Z,98429.69
2023-03-03T18:17:51.296Z,98435.94
2023-03-03T18:20:39.202Z,98438.47
2023-03-03T18:23:44.385Z,98447.50
2023-03-03T18:26:37.088Z,98442.59
2023-03-03T18:29:28.046Z,98446.31
2023-03-03T18:32:22.264Z,98448.06
2023-03-03T18:35:20.635Z,98443.69
2023-03-03T18:37:50.709Z,98444.88
2023-03-03T18:40:35.713Z,98449.28
2023-03-03T18:43:52.109Z,98456.09
2023-03-03T18:47:04.020Z,98462.19
2023-03-03T18:49:56.497Z,98459.28
2023-03-03T18:52:32.390Z,98463.03
2023-03-03T18:55:42.138Z,98469.03
2023-03-03T18:58:41.876Z,98467.88
2023-03-03T19:01:48.101Z,98469.72
2023-03-03T19:04:27.163Z,98472.66
2023-03-03T19:07:26.877Z,98479.31
2023-03-03T19:10:03.856Z,98480.41
2023-03-03T19:12:55.439Z,98485.56
2023-03-03T19:15:51.571Z,98487.03
2023-03-03T19:18:25.793Z,98483.59
2023-03-03T19:21:03.411Z,98476.72
2023-03-03T19:23:52.623Z,98485.56
2023-03-03T19:26:50.560Z,98487.41
2023-03-03T19:29:54.088Z,98487.16
2023-03-03T19:32:48.783Z,98491.53
2023-03-03T19:35:34.075Z,98496.84
2023-03-03T19:38:23.711Z,98506.13
2023-03-03T19:41:08.946Z,98502.53
2023-03-03T19:43:50.367Z,98497.75
2023-03-03T19:46:49.766Z,98497.88
2023-03-03T19:49:36.956Z,98502.53
2023-03-03T19:52:21.494Z,98505.84
2023-03-03T19:55:09.969Z,98513.81
2023-03-03T19:58:01.557Z,98505.59
2023-03-03T20:00:44.243Z,98508.00
2023-03-03T20:04:00.048Z,98508.78
2023-03-03T20:06:49.364Z,98511.69
2023-03-03T20:09:33.911Z,98504.91
2023-03-03T20:12:29.657Z,98520.41
2023-03-03T20:15:14.004Z,98517.47
2023-03-03T20:17:58.653Z,98517.59
2023-03-03T20:20:59.404Z,98515.28
2023-03-03T20:23:40.393Z,98517.94
2023-03-03T20:26:23.686Z,98513.00
2023-03-03T20:29:19.955Z,98528.22
2023-03-03T20:32:06.891Z,98520.75
2023-03-03T20:34:52.184Z,98528.72
2023-03-03T20:37:38.776Z,98521.94
2023-03-03T20:40:27.147Z,98524.22
2023-03-03T20:43:13.879Z,98525.72
2023-03-03T20:46:00.722Z,98527.50
2023-03-03T20:48:55.643Z,98526.72
2023-03-03T20:51:34.243Z,98524.31
2023-03-03T20:54:20.744Z,98526.16
2023-03-03T20:57:02.708Z,98533.56
2023-03-03T20:59:41.134Z,98533.16
2023-03-03T21:02:23.434Z,98532.97
2023-03-03T21:05:13.470Z,98535.53
2023-03-03T21:07:56.896Z,98543.69
2023-03-03T21:10:33.861Z,98538.84
2023-03-03T21:13:30.985Z,98541.59
2023-03-03T21:16:08.835Z,98542.19
2023-03-03T21:18:38.867Z,98542.09
2023-03-03T21:21:09.634Z,98539.88
2023-03-03T21:23:39.707Z,98539.56
2023-03-03T21:26:12.260Z,98547.13
2023-03-03T21:29:03.614Z,98549.69
2023-03-03T21:31:48.204Z,98545.72
2023-03-03T21:34:27.881Z,98548.84
2023-03-03T21:36:59.064Z,98547.84
2023-03-03T21:39:33.280Z,98554.31
2023-03-03T21:42:09.502Z,98552.28
2023-03-03T21:44:44.422Z,98546.16
2023-03-03T21:47:17.710Z,98551.25
2023-03-03T21:49:50.317Z,98554.34
2023-03-03T21:52:23.395Z,98545.22
2023-03-03T21:54:55.081Z,98550.13
2023-03-03T21:57:27.918Z,98548.53
2023-03-03T21:59:57.922Z,98549.53
2023-03-03T22:02:27.838Z,98543.19
2023-03-03T22:04:57.929Z,98549.53
2023-03-03T22:07:27.914Z,98544.75
2023-03-03T22:09:57.894Z,98543.25
2023-03-03T22:12:30.429Z,98547.78
2023-03-03T22:15:00.400Z,98553.59
2023-03-03T22:17:30.341Z,98555.06
2023-03-03T22:20:00.307Z,98559.72
2023-03-03T22:22:30.275Z,98555.63
2023-03-03T22:25:00.195Z,98559.44
2023-03-03T22:27:32.912Z,98552.03
2023-03-03T22:30:03.182Z,98555.41
2023-03-03T22:32:33.260Z,98558.72
2023-03-03T22:35:03.328Z,98552.56
2023-03-03T22:37:33.264Z,98550.34
2023-03-03T22:40:03.464Z,98552.03
2023-03-03T22:42:35.978Z,98550.84
2023-03-03T22:45:06.528Z,98546.25
2023-03-03T22:47:37.028Z,98559.03
2023-03-03T22:50:08.460Z,98550.63
2023-03-03T22:52:38.515Z,98556.97
2023-03-03T22:55:10.477Z,98561.28
2023-03-03T22:57:43.241Z,98559.25
2023-03-03T23:00:16.697Z,98569.78
2023-03-03T23:02:46.697Z,98567.00
2023-03-03T23:05:16.670Z,98571.53
2023-03-03T23:07:46.682Z,98570.72
2023-03-03T23:10:16.959Z,98571.38
2023-03-03T23:12:49.548Z,98571.16
2023-03-03T23:15:20.278Z,98564.97
2023-03-03T23:17:50.325Z,98571.16
2023-03-03T23:20:23.619Z,98566.28
2023-03-03T23:22:54.039Z,98566.72
2023-03-03T23:25:25.906Z,98571.63
2023-03-03T23:27:59.511Z,98569.22
2023-03-03T23:30:29.887Z,98567.53
2023-03-03T23:32:59.812Z,98575.63
2023-03-03T23:35:29.792Z,98571.31
2023-03-03T23:37:59.735Z,98573.94
2023-03-03T23:40:29.726Z,98573.22
2023-03-03T23:43:02.324Z,98577.63
2023-03-03T23:45:32.427Z,98573.81
2023-03-03T23:48:02.506Z,98575.22
2023-03-03T23:50:33.276Z,98578.50
2023-03-03T23:53:03.203Z,98575.03
2023-03-03T23:55:33.455Z,98578.22
2023-03-03T23:58:06.772Z,98577.97
